< Typhoon 200609 2006 Season Typhoon 200611 >
Typhoon 200610 (WUKONG)
General InformationTrack Information on Google MapsDetailed Wind InformationAccess Analytics MapList of All Images || NewsDisaster Info.WeblogTrackbackTyphoon FrontResourceGoogle EarthGE AnimationAtom FeedGeoJSON
Detalied Best Track (Time Zone = UTC)
Year Month Day Hour Lat. Long. Pressure (hPa) Wind (kt) Class Image Chart
2006 8 12 06 20.7 141.2 1000 0 2 Image Chart
2006 8 12 12 22.0 140.0 1000 0 2 Image Chart
2006 8 12 18 23.3 139.1 994 0 2 Image Chart
2006 8 13 00 24.4 138.5 992 35 3 Image Chart
2006 8 13 06 24.9 138.2 992 35 3 Image Chart
2006 8 13 12 25.3 138.0 990 40 3 Image Chart
2006 8 13 18 25.7 137.8 985 45 3 Image Chart
2006 8 14 00 26.2 137.7 985 45 3 Image Chart
2006 8 14 06 26.6 137.7 985 45 3 Image Chart
2006 8 14 12 27.0 137.9 985 45 3 Image Chart
2006 8 14 18 27.6 138.2 980 50 4 Image Chart
2006 8 15 00 28.3 138.6 980 50 4 Image Chart
2006 8 15 06 29.0 137.9 980 50 4 Image Chart
2006 8 15 12 29.2 137.1 980 50 4 Image Chart
2006 8 15 18 29.3 136.3 980 50 4 Image Chart
2006 8 16 00 29.6 135.3 980 50 4 Image Chart
2006 8 16 06 30.0 134.5 980 50 4 Image Chart
2006 8 16 09 30.1 134.4 980 50 4 Image Chart
2006 8 16 12 30.2 134.2 980 50 4 Image Chart
2006 8 16 15 30.4 134.0 980 50 4 Image Chart
2006 8 16 18 30.5 133.8 980 50 4 Image Chart
2006 8 16 21 30.7 133.5 980 50 4 Image Chart
2006 8 17 00 30.8 133.1 980 50 4 Image Chart
2006 8 17 03 31.0 132.8 980 50 4 Image Chart
2006 8 17 06 31.2 132.4 980 50 4 Image Chart
2006 8 17 09 31.4 132.2 980 50 4 Image Chart
2006 8 17 12 31.6 131.9 980 50 4 Image Chart
2006 8 17 15 31.7 131.6 980 50 4 Image Chart
2006 8 17 16 31.8 131.5 980 45 3 Image Chart
2006 8 17 18 32.0 131.1 980 45 3 Image Chart
2006 8 17 21 32.2 130.9 980 45 3 Image Chart
2006 8 18 00 32.5 130.7 982 45 3 Image Chart
2006 8 18 03 32.7 130.7 982 45 3 Image Chart
2006 8 18 06 32.8 130.7 984 45 3 Image Chart
2006 8 18 09 32.9 130.7 984 45 3 Image Chart
2006 8 18 12 33.2 130.6 988 45 3 Image Chart
2006 8 18 15 33.5 130.6 988 40 3 Image Chart
2006 8 18 18 33.7 130.5 990 40 3 Image Chart
2006 8 18 21 34.0 130.5 990 40 3 Image Chart
2006 8 19 00 34.4 130.2 992 40 3 Image Chart
2006 8 19 03 34.7 130.2 992 40 3 Image Chart
2006 8 19 06 35.2 130.1 994 35 3 Image Chart
2006 8 19 12 36.3 130.0 1000 0 2 Image Chart
2006 8 19 18 37.3 129.9 1002 0 2 Image Chart
2006 8 20 00 38.2 130.0 1004 0 2 Image Chart
2006 8 20 06 39.2 130.0 1004 0 2 Image Chart
2006 8 20 12 40.2 130.1 1006 0 2 Image Chart
2006 8 20 18 40.8 131.0 1006 0 2 Image Chart
2006 8 21 00 41.4 132.3 1006 0 2 Image Chart
2006 8 21 06 41.8 133.4 1006 0 2 Image Chart
Japan Meteorological Agency Best Track Data | Correction Date : 2006-11-14
< Typhoon 200609 2006 Season Typhoon 200611 >

Help